sensor_id;sensor_type;location;lat;lon;timestamp;P1;durP1;ratioP1;P2;durP2;ratioP2
59308;SDS011;48433;53.016;-2.260;2023-02-26T00:01:40;21.05;;;8.77;;
59308;SDS011;48433;53.016;-2.260;2023-02-26T00:04:08;14.68;;;5.97;;
59308;SDS011;48433;53.016;-2.260;2023-02-26T00:06:38;12.43;;;4.88;;
59308;SDS011;48433;53.016;-2.260;2023-02-26T00:09:20;17.48;;;5.97;;
59308;SDS011;48433;53.016;-2.260;2023-02-26T00:11:48;17.42;;;6.90;;
59308;SDS011;48433;53.016;-2.260;2023-02-26T00:14:16;31.40;;;11.50;;
59308;SDS011;48433;53.016;-2.260;2023-02-26T00:16:46;17.15;;;7.13;;
59308;SDS011;48433;53.016;-2.260;2023-02-26T00:19:22;13.35;;;4.57;;
59308;SDS011;48433;53.016;-2.260;2023-02-26T00:21:49;12.20;;;5.35;;
59308;SDS011;48433;53.016;-2.260;2023-02-26T00:24:17;11.75;;;4.25;;
59308;SDS011;48433;53.016;-2.260;2023-02-26T00:26:45;14.63;;;3.80;;
59308;SDS011;48433;53.016;-2.260;2023-02-26T00:29:12;11.45;;;3.67;;
59308;SDS011;48433;53.016;-2.260;2023-02-26T00:31:41;13.55;;;4.45;;
59308;SDS011;48433;53.016;-2.260;2023-02-26T00:34:10;14.63;;;4.55;;
59308;SDS011;48433;53.016;-2.260;2023-02-26T00:39:32;13.88;;;4.03;;
59308;SDS011;48433;53.016;-2.260;2023-02-26T00:42:06;17.02;;;4.53;;
59308;SDS011;48433;53.016;-2.260;2023-02-26T00:44:34;13.68;;;4.32;;
59308;SDS011;48433;53.016;-2.260;2023-02-26T00:47:24;11.27;;;3.78;;
59308;SDS011;48433;53.016;-2.260;2023-02-26T00:52:40;11.38;;;3.90;;
59308;SDS011;48433;53.016;-2.260;2023-02-26T00:55:13;13.20;;;4.10;;
59308;SDS011;48433;53.016;-2.260;2023-02-26T00:57:41;11.40;;;4.22;;
59308;SDS011;48433;53.016;-2.260;2023-02-26T01:00:09;18.10;;;4.30;;
59308;SDS011;48433;53.016;-2.260;2023-02-26T01:02:38;15.70;;;4.20;;
59308;SDS011;48433;53.016;-2.260;2023-02-26T01:05:06;22.10;;;5.43;;
59308;SDS011;48433;53.016;-2.260;2023-02-26T01:10:24;17.70;;;4.88;;
59308;SDS011;48433;53.016;-2.260;2023-02-26T01:12:52;11.73;;;4.35;;
59308;SDS011;48433;53.016;-2.260;2023-02-26T01:15:23;11.48;;;4.13;;
59308;SDS011;48433;53.016;-2.260;2023-02-26T01:20:26;15.10;;;4.00;;
59308;SDS011;48433;53.016;-2.260;2023-02-26T01:23:08;13.80;;;4.75;;
59308;SDS011;48433;53.016;-2.260;2023-02-26T01:25:43;15.52;;;3.80;;
59308;SDS011;48433;53.016;-2.260;2023-02-26T01:28:12;15.35;;;5.28;;
59308;SDS011;48433;53.016;-2.260;2023-02-26T01:30:41;14.32;;;3.97;;
59308;SDS011;48433;53.016;-2.260;2023-02-26T01:44:01;9.98;;;3.47;;
59308;SDS011;48433;53.016;-2.260;2023-02-26T01:49:41;11.88;;;4.40;;
59308;SDS011;48433;53.016;-2.260;2023-02-26T01:54:59;9.45;;;3.78;;
59308;SDS011;48433;53.016;-2.260;2023-02-26T01:57:27;8.52;;;4.10;;
59308;SDS011;48433;53.016;-2.260;2023-02-26T01:59:55;15.30;;;3.80;;
59308;SDS011;48433;53.016;-2.260;2023-02-26T02:02:23;9.40;;;4.03;;
59308;SDS011;48433;53.016;-2.260;2023-02-26T02:04:51;31.23;;;7.00;;
59308;SDS011;48433;53.016;-2.260;2023-02-26T02:07:19;12.18;;;3.85;;
59308;SDS011;48433;53.016;-2.260;2023-02-26T02:09:47;13.90;;;3.85;;
59308;SDS011;48433;53.016;-2.260;2023-02-26T02:12:26;12.27;;;4.15;;
59308;SDS011;48433;53.016;-2.260;2023-02-26T02:18:14;15.65;;;4.82;;
59308;SDS011;48433;53.016;-2.260;2023-02-26T02:27:10;16.25;;;4.75;;
59308;SDS011;48433;53.016;-2.260;2023-02-26T02:32:09;18.13;;;5.25;;
59308;SDS011;48433;53.016;-2.260;2023-02-26T02:34:48;14.40;;;5.07;;
59308;SDS011;48433;53.016;-2.260;2023-02-26T02:37:37;11.60;;;4.40;;
59308;SDS011;48433;53.016;-2.260;2023-02-26T02:40:21;13.13;;;4.50;;
59308;SDS011;48433;53.016;-2.260;2023-02-26T02:43:27;12.60;;;6.00;;
59308;SDS011;48433;53.016;-2.260;2023-02-26T02:45:50;19.60;;;5.40;;
59308;SDS011;48433;53.016;-2.260;2023-02-26T02:48:23;11.45;;;4.72;;
59308;SDS011;48433;53.016;-2.260;2023-02-26T02:50:56;12.95;;;4.20;;
59308;SDS011;48433;53.016;-2.260;2023-02-26T02:56:26;20.27;;;5.18;;
59308;SDS011;48433;53.016;-2.260;2023-02-26T02:59:20;9.80;;;3.90;;
59308;SDS011;48433;53.016;-2.260;2023-02-26T03:01:55;13.73;;;5.05;;
59308;SDS011;48433;53.016;-2.260;2023-02-26T03:04:30;16.33;;;6.47;;
59308;SDS011;48433;53.016;-2.260;2023-02-26T03:06:58;16.73;;;5.35;;
59308;SDS011;48433;53.016;-2.260;2023-02-26T03:09:26;15.50;;;4.45;;
59308;SDS011;48433;53.016;-2.260;2023-02-26T03:11:53;12.48;;;4.07;;
59308;SDS011;48433;53.016;-2.260;2023-02-26T03:14:22;17.08;;;5.00;;
59308;SDS011;48433;53.016;-2.260;2023-02-26T03:22:55;24.58;;;5.30;;
59308;SDS011;48433;53.016;-2.260;2023-02-26T03:25:44;12.32;;;4.47;;
59308;SDS011;48433;53.016;-2.260;2023-02-26T03:28:37;18.63;;;7.13;;
59308;SDS011;48433;53.016;-2.260;2023-02-26T03:33:57;10.38;;;4.40;;
59308;SDS011;48433;53.016;-2.260;2023-02-26T03:36:41;15.82;;;5.47;;
59308;SDS011;48433;53.016;-2.260;2023-02-26T03:39:27;12.82;;;5.43;;
59308;SDS011;48433;53.016;-2.260;2023-02-26T03:47:34;14.88;;;5.32;;
59308;SDS011;48433;53.016;-2.260;2023-02-26T03:51:04;12.32;;;5.68;;
59308;SDS011;48433;53.016;-2.260;2023-02-26T03:53:35;18.40;;;6.97;;
59308;SDS011;48433;53.016;-2.260;2023-02-26T03:56:25;10.85;;;5.15;;
59308;SDS011;48433;53.016;-2.260;2023-02-26T03:59:18;13.43;;;5.07;;
59308;SDS011;48433;53.016;-2.260;2023-02-26T04:02:16;10.75;;;5.22;;
59308;SDS011;48433;53.016;-2.260;2023-02-26T04:04:53;13.57;;;5.75;;
59308;SDS011;48433;53.016;-2.260;2023-02-26T04:07:25;14.57;;;5.80;;
59308;SDS011;48433;53.016;-2.260;2023-02-26T04:09:53;18.05;;;6.15;;
59308;SDS011;48433;53.016;-2.260;2023-02-26T04:12:25;15.57;;;5.85;;
59308;SDS011;48433;53.016;-2.260;2023-02-26T04:14:55;14.13;;;5.35;;
59308;SDS011;48433;53.016;-2.260;2023-02-26T04:17:24;13.27;;;5.28;;
59308;SDS011;48433;53.016;-2.260;2023-02-26T04:19:52;13.63;;;5.80;;
59308;SDS011;48433;53.016;-2.260;2023-02-26T04:22:20;15.93;;;6.68;;
59308;SDS011;48433;53.016;-2.260;2023-02-26T04:24:47;19.35;;;6.00;;
59308;SDS011;48433;53.016;-2.260;2023-02-26T04:27:16;14.52;;;5.50;;
59308;SDS011;48433;53.016;-2.260;2023-02-26T04:29:44;19.15;;;5.88;;
59308;SDS011;48433;53.016;-2.260;2023-02-26T04:32:12;15.73;;;6.70;;
59308;SDS011;48433;53.016;-2.260;2023-02-26T04:34:39;19.65;;;5.85;;
59308;SDS011;48433;53.016;-2.260;2023-02-26T04:37:07;14.10;;;5.80;;
59308;SDS011;48433;53.016;-2.260;2023-02-26T04:39:35;12.82;;;5.22;;
59308;SDS011;48433;53.016;-2.260;2023-02-26T04:42:03;15.43;;;5.40;;
59308;SDS011;48433;53.016;-2.260;2023-02-26T04:44:32;14.18;;;5.60;;
59308;SDS011;48433;53.016;-2.260;2023-02-26T04:47:00;16.27;;;5.60;;
59308;SDS011;48433;53.016;-2.260;2023-02-26T04:49:28;12.80;;;5.20;;
59308;SDS011;48433;53.016;-2.260;2023-02-26T04:51:56;17.45;;;5.20;;
59308;SDS011;48433;53.016;-2.260;2023-02-26T04:54:24;12.45;;;5.57;;
59308;SDS011;48433;53.016;-2.260;2023-02-26T04:56:52;21.67;;;5.95;;
59308;SDS011;48433;53.016;-2.260;2023-02-26T04:59:20;16.67;;;5.80;;
59308;SDS011;48433;53.016;-2.260;2023-02-26T05:01:48;12.88;;;4.88;;
59308;SDS011;48433;53.016;-2.260;2023-02-26T05:04:16;21.38;;;5.65;;
59308;SDS011;48433;53.016;-2.260;2023-02-26T05:09:15;17.58;;;5.65;;
59308;SDS011;48433;53.016;-2.260;2023-02-26T05:11:43;13.02;;;5.07;;
59308;SDS011;48433;53.016;-2.260;2023-02-26T05:14:11;12.50;;;4.68;;
59308;SDS011;48433;53.016;-2.260;2023-02-26T05:16:40;15.00;;;5.50;;
59308;SDS011;48433;53.016;-2.260;2023-02-26T05:19:08;14.15;;;6.63;;
59308;SDS011;48433;53.016;-2.260;2023-02-26T05:21:36;11.07;;;4.82;;
59308;SDS011;48433;53.016;-2.260;2023-02-26T05:24:03;13.23;;;4.88;;
59308;SDS011;48433;53.016;-2.260;2023-02-26T05:26:31;12.30;;;3.80;;
59308;SDS011;48433;53.016;-2.260;2023-02-26T05:28:59;14.13;;;5.40;;
59308;SDS011;48433;53.016;-2.260;2023-02-26T05:31:26;17.83;;;5.40;;
59308;SDS011;48433;53.016;-2.260;2023-02-26T05:33:55;12.63;;;4.30;;
59308;SDS011;48433;53.016;-2.260;2023-02-26T05:36:23;9.90;;;4.07;;
59308;SDS011;48433;53.016;-2.260;2023-02-26T05:38:51;18.25;;;5.00;;
59308;SDS011;48433;53.016;-2.260;2023-02-26T05:41:20;15.13;;;5.35;;
59308;SDS011;48433;53.016;-2.260;2023-02-26T05:43:47;12.57;;;4.60;;
59308;SDS011;48433;53.016;-2.260;2023-02-26T05:46:15;10.07;;;4.68;;
59308;SDS011;48433;53.016;-2.260;2023-02-26T05:48:42;12.73;;;4.72;;
59308;SDS011;48433;53.016;-2.260;2023-02-26T05:51:11;14.35;;;4.95;;
59308;SDS011;48433;53.016;-2.260;2023-02-26T05:53:39;11.10;;;4.43;;
59308;SDS011;48433;53.016;-2.260;2023-02-26T05:56:07;17.00;;;4.80;;
59308;SDS011;48433;53.016;-2.260;2023-02-26T05:58:34;15.18;;;4.95;;
59308;SDS011;48433;53.016;-2.260;2023-02-26T06:01:03;14.70;;;5.88;;
59308;SDS011;48433;53.016;-2.260;2023-02-26T06:03:30;10.73;;;4.85;;
59308;SDS011;48433;53.016;-2.260;2023-02-26T06:05:58;17.48;;;5.43;;
59308;SDS011;48433;53.016;-2.260;2023-02-26T06:08:26;16.40;;;4.72;;
59308;SDS011;48433;53.016;-2.260;2023-02-26T06:10:53;12.70;;;5.55;;
59308;SDS011;48433;53.016;-2.260;2023-02-26T06:13:21;16.48;;;5.10;;
59308;SDS011;48433;53.016;-2.260;2023-02-26T06:15:49;11.82;;;4.28;;
59308;SDS011;48433;53.016;-2.260;2023-02-26T06:18:18;12.93;;;4.95;;
59308;SDS011;48433;53.016;-2.260;2023-02-26T06:20:45;13.55;;;4.80;;
59308;SDS011;48433;53.016;-2.260;2023-02-26T06:23:13;10.95;;;4.38;;
59308;SDS011;48433;53.016;-2.260;2023-02-26T06:25:43;14.60;;;4.28;;
59308;SDS011;48433;53.016;-2.260;2023-02-26T06:28:11;11.65;;;4.35;;
59308;SDS011;48433;53.016;-2.260;2023-02-26T06:30:38;13.23;;;4.75;;
59308;SDS011;48433;53.016;-2.260;2023-02-26T06:33:07;13.75;;;4.70;;
59308;SDS011;48433;53.016;-2.260;2023-02-26T06:35:34;11.88;;;5.35;;
59308;SDS011;48433;53.016;-2.260;2023-02-26T06:38:02;15.75;;;4.60;;
59308;SDS011;48433;53.016;-2.260;2023-02-26T06:40:30;14.68;;;4.40;;
59308;SDS011;48433;53.016;-2.260;2023-02-26T06:42:57;10.65;;;4.68;;
59308;SDS011;48433;53.016;-2.260;2023-02-26T06:45:25;12.65;;;5.70;;
59308;SDS011;48433;53.016;-2.260;2023-02-26T06:47:52;12.60;;;3.83;;
59308;SDS011;48433;53.016;-2.260;2023-02-26T06:50:20;13.68;;;3.83;;
59308;SDS011;48433;53.016;-2.260;2023-02-26T06:52:48;12.07;;;3.30;;
59308;SDS011;48433;53.016;-2.260;2023-02-26T06:55:16;8.05;;;3.33;;
59308;SDS011;48433;53.016;-2.260;2023-02-26T06:57:44;13.43;;;3.95;;
59308;SDS011;48433;53.016;-2.260;2023-02-26T07:00:12;11.68;;;4.20;;
59308;SDS011;48433;53.016;-2.260;2023-02-26T07:02:40;14.50;;;4.20;;
59308;SDS011;48433;53.016;-2.260;2023-02-26T07:05:08;10.65;;;3.90;;
59308;SDS011;48433;53.016;-2.260;2023-02-26T07:07:36;14.68;;;3.90;;
59308;SDS011;48433;53.016;-2.260;2023-02-26T07:10:03;14.90;;;4.18;;
59308;SDS011;48433;53.016;-2.260;2023-02-26T07:12:32;11.55;;;3.60;;
59308;SDS011;48433;53.016;-2.260;2023-02-26T07:14:59;13.45;;;4.22;;
59308;SDS011;48433;53.016;-2.260;2023-02-26T07:17:27;10.30;;;3.72;;
59308;SDS011;48433;53.016;-2.260;2023-02-26T07:19:54;14.48;;;4.03;;
59308;SDS011;48433;53.016;-2.260;2023-02-26T07:22:22;12.88;;;4.07;;
59308;SDS011;48433;53.016;-2.260;2023-02-26T07:24:50;10.00;;;3.80;;
59308;SDS011;48433;53.016;-2.260;2023-02-26T07:27:17;10.95;;;4.38;;
59308;SDS011;48433;53.016;-2.260;2023-02-26T07:29:45;10.07;;;3.97;;
59308;SDS011;48433;53.016;-2.260;2023-02-26T07:32:12;10.98;;;4.43;;
59308;SDS011;48433;53.016;-2.260;2023-02-26T07:34:40;8.38;;;3.30;;
59308;SDS011;48433;53.016;-2.260;2023-02-26T07:37:08;12.90;;;4.47;;
59308;SDS011;48433;53.016;-2.260;2023-02-26T07:39:35;10.90;;;4.05;;
59308;SDS011;48433;53.016;-2.260;2023-02-26T07:42:03;12.55;;;4.32;;
59308;SDS011;48433;53.016;-2.260;2023-02-26T07:44:32;11.40;;;3.97;;
59308;SDS011;48433;53.016;-2.260;2023-02-26T07:47:00;12.45;;;4.72;;
59308;SDS011;48433;53.016;-2.260;2023-02-26T07:49:28;11.15;;;5.18;;
59308;SDS011;48433;53.016;-2.260;2023-02-26T07:51:55;11.77;;;3.70;;
59308;SDS011;48433;53.016;-2.260;2023-02-26T07:54:23;13.50;;;4.72;;
59308;SDS011;48433;53.016;-2.260;2023-02-26T07:56:51;11.68;;;4.15;;
59308;SDS011;48433;53.016;-2.260;2023-02-26T07:59:18;16.27;;;4.50;;
59308;SDS011;48433;53.016;-2.260;2023-02-26T08:01:46;13.05;;;4.25;;
59308;SDS011;48433;53.016;-2.260;2023-02-26T08:04:14;12.50;;;4.38;;
59308;SDS011;48433;53.016;-2.260;2023-02-26T08:06:42;10.15;;;3.65;;
59308;SDS011;48433;53.016;-2.260;2023-02-26T08:09:09;10.27;;;3.85;;
59308;SDS011;48433;53.016;-2.260;2023-02-26T08:11:37;14.75;;;4.68;;
59308;SDS011;48433;53.016;-2.260;2023-02-26T08:14:06;14.20;;;3.97;;
59308;SDS011;48433;53.016;-2.260;2023-02-26T08:16:34;10.57;;;3.85;;
59308;SDS011;48433;53.016;-2.260;2023-02-26T08:19:01;13.30;;;3.70;;
59308;SDS011;48433;53.016;-2.260;2023-02-26T08:21:29;12.85;;;4.00;;
59308;SDS011;48433;53.016;-2.260;2023-02-26T08:23:57;11.02;;;3.38;;
59308;SDS011;48433;53.016;-2.260;2023-02-26T08:26:25;14.48;;;4.93;;
59308;SDS011;48433;53.016;-2.260;2023-02-26T08:28:54;8.85;;;3.20;;
59308;SDS011;48433;53.016;-2.260;2023-02-26T08:31:21;14.60;;;3.88;;
59308;SDS011;48433;53.016;-2.260;2023-02-26T08:33:49;9.73;;;3.40;;
59308;SDS011;48433;53.016;-2.260;2023-02-26T08:36:17;10.40;;;3.40;;
59308;SDS011;48433;53.016;-2.260;2023-02-26T08:38:44;12.48;;;3.60;;
59308;SDS011;48433;53.016;-2.260;2023-02-26T08:41:12;6.75;;;2.60;;
59308;SDS011;48433;53.016;-2.260;2023-02-26T08:43:40;9.13;;;3.10;;
59308;SDS011;48433;53.016;-2.260;2023-02-26T08:46:07;11.88;;;3.70;;
59308;SDS011;48433;53.016;-2.260;2023-02-26T08:48:35;9.40;;;2.72;;
59308;SDS011;48433;53.016;-2.260;2023-02-26T08:51:03;10.73;;;3.28;;
59308;SDS011;48433;53.016;-2.260;2023-02-26T08:53:31;10.40;;;3.15;;
59308;SDS011;48433;53.016;-2.260;2023-02-26T08:55:58;12.60;;;2.80;;
59308;SDS011;48433;53.016;-2.260;2023-02-26T08:58:26;7.28;;;2.88;;
59308;SDS011;48433;53.016;-2.260;2023-02-26T09:00:53;14.77;;;3.58;;
59308;SDS011;48433;53.016;-2.260;2023-02-26T09:03:21;11.00;;;3.47;;
59308;SDS011;48433;53.016;-2.260;2023-02-26T09:05:49;11.68;;;3.50;;
59308;SDS011;48433;53.016;-2.260;2023-02-26T09:08:17;16.25;;;4.35;;
59308;SDS011;48433;53.016;-2.260;2023-02-26T09:10:46;10.75;;;3.50;;
59308;SDS011;48433;53.016;-2.260;2023-02-26T09:13:14;13.65;;;3.88;;
59308;SDS011;48433;53.016;-2.260;2023-02-26T09:15:42;13.73;;;4.40;;
59308;SDS011;48433;53.016;-2.260;2023-02-26T09:18:10;13.25;;;4.47;;
59308;SDS011;48433;53.016;-2.260;2023-02-26T09:20:42;14.18;;;4.28;;
59308;SDS011;48433;53.016;-2.260;2023-02-26T09:23:10;9.95;;;3.88;;
59308;SDS011;48433;53.016;-2.260;2023-02-26T09:25:38;16.98;;;3.67;;
59308;SDS011;48433;53.016;-2.260;2023-02-26T09:28:06;11.98;;;4.10;;
59308;SDS011;48433;53.016;-2.260;2023-02-26T09:30:34;12.82;;;3.60;;
59308;SDS011;48433;53.016;-2.260;2023-02-26T09:33:02;12.93;;;4.68;;
59308;SDS011;48433;53.016;-2.260;2023-02-26T09:35:29;16.55;;;4.78;;
59308;SDS011;48433;53.016;-2.260;2023-02-26T09:37:57;13.68;;;4.05;;
59308;SDS011;48433;53.016;-2.260;2023-02-26T09:40:29;8.90;;;3.55;;
59308;SDS011;48433;53.016;-2.260;2023-02-26T09:43:18;11.68;;;4.20;;
59308;SDS011;48433;53.016;-2.260;2023-02-26T09:48:58;12.88;;;4.05;;
59308;SDS011;48433;53.016;-2.260;2023-02-26T09:52:10;11.82;;;3.63;;
59308;SDS011;48433;53.016;-2.260;2023-02-26T09:54:48;14.35;;;3.75;;
59308;SDS011;48433;53.016;-2.260;2023-02-26T09:57:21;10.13;;;3.88;;
59308;SDS011;48433;53.016;-2.260;2023-02-26T09:59:59;15.55;;;4.00;;
59308;SDS011;48433;53.016;-2.260;2023-02-26T10:05:47;16.27;;;3.83;;
59308;SDS011;48433;53.016;-2.260;2023-02-26T10:14:17;13.43;;;3.30;;
59308;SDS011;48433;53.016;-2.260;2023-02-26T10:16:55;15.98;;;2.92;;
59308;SDS011;48433;53.016;-2.260;2023-02-26T10:19:28;14.05;;;2.45;;
59308;SDS011;48433;53.016;-2.260;2023-02-26T10:22:14;13.48;;;3.03;;
59308;SDS011;48433;53.016;-2.260;2023-02-26T10:25:16;11.40;;;2.67;;
59308;SDS011;48433;53.016;-2.260;2023-02-26T10:27:57;9.13;;;2.15;;
59308;SDS011;48433;53.016;-2.260;2023-02-26T10:30:41;14.13;;;2.10;;
59308;SDS011;48433;53.016;-2.260;2023-02-26T10:33:36;9.85;;;2.42;;
59308;SDS011;48433;53.016;-2.260;2023-02-26T10:39:02;10.05;;;2.40;;
59308;SDS011;48433;53.016;-2.260;2023-02-26T10:41:36;12.90;;;2.30;;
59308;SDS011;48433;53.016;-2.260;2023-02-26T10:47:18;11.25;;;2.80;;
59308;SDS011;48433;53.016;-2.260;2023-02-26T10:50:02;13.73;;;3.08;;
59308;SDS011;48433;53.016;-2.260;2023-02-26T10:52:32;12.52;;;2.38;;
59308;SDS011;48433;53.016;-2.260;2023-02-26T10:55:04;10.32;;;2.35;;
59308;SDS011;48433;53.016;-2.260;2023-02-26T11:00:35;11.88;;;2.50;;
59308;SDS011;48433;53.016;-2.260;2023-02-26T11:03:03;11.52;;;2.70;;
59308;SDS011;48433;53.016;-2.260;2023-02-26T11:05:32;10.38;;;2.65;;
59308;SDS011;48433;53.016;-2.260;2023-02-26T11:08:04;8.15;;;2.10;;
59308;SDS011;48433;53.016;-2.260;2023-02-26T11:10:48;10.13;;;2.60;;
59308;SDS011;48433;53.016;-2.260;2023-02-26T11:13:22;13.23;;;2.65;;
59308;SDS011;48433;53.016;-2.260;2023-02-26T11:15:55;7.78;;;2.20;;
59308;SDS011;48433;53.016;-2.260;2023-02-26T11:18:26;9.60;;;2.10;;
59308;SDS011;48433;53.016;-2.260;2023-02-26T11:20:57;8.07;;;2.25;;
59308;SDS011;48433;53.016;-2.260;2023-02-26T11:23:27;7.43;;;2.53;;
59308;SDS011;48433;53.016;-2.260;2023-02-26T11:26:07;10.93;;;2.53;;
59308;SDS011;48433;53.016;-2.260;2023-02-26T11:31:14;10.60;;;2.78;;
59308;SDS011;48433;53.016;-2.260;2023-02-26T11:33:48;8.65;;;2.80;;
59308;SDS011;48433;53.016;-2.260;2023-02-26T11:36:17;10.70;;;2.95;;
59308;SDS011;48433;53.016;-2.260;2023-02-26T11:38:51;10.18;;;2.88;;
59308;SDS011;48433;53.016;-2.260;2023-02-26T11:41:21;10.63;;;2.47;;
59308;SDS011;48433;53.016;-2.260;2023-02-26T11:46:28;9.25;;;2.30;;
59308;SDS011;48433;53.016;-2.260;2023-02-26T11:48:57;10.80;;;2.58;;
59308;SDS011;48433;53.016;-2.260;2023-02-26T11:51:28;11.25;;;2.60;;
59308;SDS011;48433;53.016;-2.260;2023-02-26T11:53:57;15.10;;;3.13;;
59308;SDS011;48433;53.016;-2.260;2023-02-26T11:56:42;11.27;;;2.75;;
59308;SDS011;48433;53.016;-2.260;2023-02-26T11:59:20;7.97;;;2.28;;
59308;SDS011;48433;53.016;-2.260;2023-02-26T12:01:50;9.05;;;2.35;;
59308;SDS011;48433;53.016;-2.260;2023-02-26T12:04:23;9.90;;;2.10;;
59308;SDS011;48433;53.016;-2.260;2023-02-26T12:06:54;6.47;;;1.77;;
59308;SDS011;48433;53.016;-2.260;2023-02-26T12:09:22;8.38;;;2.00;;
59308;SDS011;48433;53.016;-2.260;2023-02-26T12:17:34;10.13;;;2.50;;
59308;SDS011;48433;53.016;-2.260;2023-02-26T12:20:19;6.75;;;1.80;;
59308;SDS011;48433;53.016;-2.260;2023-02-26T12:25:49;11.57;;;2.20;;
59308;SDS011;48433;53.016;-2.260;2023-02-26T12:46:15;9.48;;;2.47;;
59308;SDS011;48433;53.016;-2.260;2023-02-26T12:52:02;9.13;;;2.63;;
59308;SDS011;48433;53.016;-2.260;2023-02-26T13:08:24;12.50;;;3.13;;
59308;SDS011;48433;53.016;-2.260;2023-02-26T13:19:20;11.70;;;2.65;;
59308;SDS011;48433;53.016;-2.260;2023-02-26T13:21:58;10.43;;;2.90;;
59308;SDS011;48433;53.016;-2.260;2023-02-26T13:24:40;15.98;;;2.88;;
59308;SDS011;48433;53.016;-2.260;2023-02-26T13:27:12;10.07;;;2.40;;
59308;SDS011;48433;53.016;-2.260;2023-02-26T13:29:47;8.38;;;2.75;;
59308;SDS011;48433;53.016;-2.260;2023-02-26T13:35:05;12.68;;;2.20;;
59308;SDS011;48433;53.016;-2.260;2023-02-26T13:37:44;9.35;;;2.20;;
59308;SDS011;48433;53.016;-2.260;2023-02-26T13:45:51;11.80;;;1.93;;
59308;SDS011;48433;53.016;-2.260;2023-02-26T13:59:51;12.60;;;2.95;;
59308;SDS011;48433;53.016;-2.260;2023-02-26T14:02:44;9.70;;;2.25;;
59308;SDS011;48433;53.016;-2.260;2023-02-26T14:05:34;9.20;;;2.17;;
59308;SDS011;48433;53.016;-2.260;2023-02-26T14:16:40;7.35;;;1.98;;
59308;SDS011;48433;53.016;-2.260;2023-02-26T14:21:51;11.70;;;2.67;;
59308;SDS011;48433;53.016;-2.260;2023-02-26T14:24:31;6.85;;;2.20;;
59308;SDS011;48433;53.016;-2.260;2023-02-26T14:27:19;12.23;;;2.28;;
59308;SDS011;48433;53.016;-2.260;2023-02-26T14:30:04;9.30;;;2.05;;
59308;SDS011;48433;53.016;-2.260;2023-02-26T14:37:57;14.75;;;2.70;;
59308;SDS011;48433;53.016;-2.260;2023-02-26T14:40:29;10.95;;;2.55;;
59308;SDS011;48433;53.016;-2.260;2023-02-26T14:43:03;12.75;;;2.20;;
59308;SDS011;48433;53.016;-2.260;2023-02-26T14:45:40;10.20;;;2.40;;
59308;SDS011;48433;53.016;-2.260;2023-02-26T14:48:15;7.15;;;2.00;;
59308;SDS011;48433;53.016;-2.260;2023-02-26T14:53:29;10.02;;;2.83;;
59308;SDS011;48433;53.016;-2.260;2023-02-26T15:10:24;12.43;;;2.55;;
59308;SDS011;48433;53.016;-2.260;2023-02-26T15:15:51;10.98;;;2.92;;
59308;SDS011;48433;53.016;-2.260;2023-02-26T15:18:49;10.43;;;2.35;;
59308;SDS011;48433;53.016;-2.260;2023-02-26T15:23:59;8.45;;;2.00;;
59308;SDS011;48433;53.016;-2.260;2023-02-26T15:28:58;9.15;;;3.35;;
59308;SDS011;48433;53.016;-2.260;2023-02-26T15:31:38;5.57;;;1.83;;
59308;SDS011;48433;53.016;-2.260;2023-02-26T15:34:10;7.40;;;2.05;;
59308;SDS011;48433;53.016;-2.260;2023-02-26T15:36:39;5.55;;;2.05;;
59308;SDS011;48433;53.016;-2.260;2023-02-26T15:39:12;8.27;;;1.90;;
59308;SDS011;48433;53.016;-2.260;2023-02-26T15:41:42;6.47;;;2.53;;
59308;SDS011;48433;53.016;-2.260;2023-02-26T15:44:18;7.68;;;1.75;;
59308;SDS011;48433;53.016;-2.260;2023-02-26T15:46:51;5.00;;;1.50;;
59308;SDS011;48433;53.016;-2.260;2023-02-26T15:49:27;6.97;;;1.75;;
59308;SDS011;48433;53.016;-2.260;2023-02-26T15:51:59;9.43;;;1.80;;
59308;SDS011;48433;53.016;-2.260;2023-02-26T15:54:32;9.35;;;2.13;;
59308;SDS011;48433;53.016;-2.260;2023-02-26T15:57:03;8.45;;;2.22;;
59308;SDS011;48433;53.016;-2.260;2023-02-26T15:59:31;9.13;;;2.40;;
59308;SDS011;48433;53.016;-2.260;2023-02-26T16:02:00;7.63;;;2.03;;
59308;SDS011;48433;53.016;-2.260;2023-02-26T16:04:29;8.65;;;1.92;;
59308;SDS011;48433;53.016;-2.260;2023-02-26T16:06:56;9.88;;;2.20;;
59308;SDS011;48433;53.016;-2.260;2023-02-26T16:09:28;6.20;;;1.70;;
59308;SDS011;48433;53.016;-2.260;2023-02-26T16:11:58;8.10;;;2.10;;
59308;SDS011;48433;53.016;-2.260;2023-02-26T16:14:49;6.38;;;1.70;;
59308;SDS011;48433;53.016;-2.260;2023-02-26T16:17:24;9.25;;;1.83;;
59308;SDS011;48433;53.016;-2.260;2023-02-26T16:19:55;6.40;;;1.98;;
59308;SDS011;48433;53.016;-2.260;2023-02-26T16:22:32;7.25;;;1.60;;
59308;SDS011;48433;53.016;-2.260;2023-02-26T16:27:32;8.07;;;2.10;;
59308;SDS011;48433;53.016;-2.260;2023-02-26T16:30:02;6.40;;;2.33;;
59308;SDS011;48433;53.016;-2.260;2023-02-26T16:32:32;8.32;;;2.05;;
59308;SDS011;48433;53.016;-2.260;2023-02-26T16:35:09;8.85;;;2.10;;
59308;SDS011;48433;53.016;-2.260;2023-02-26T16:37:45;6.47;;;2.22;;
59308;SDS011;48433;53.016;-2.260;2023-02-26T16:40:17;6.15;;;1.70;;
59308;SDS011;48433;53.016;-2.260;2023-02-26T16:42:53;9.82;;;2.78;;
59308;SDS011;48433;53.016;-2.260;2023-02-26T16:48:04;11.07;;;2.75;;
59308;SDS011;48433;53.016;-2.260;2023-02-26T16:50:40;10.73;;;2.35;;
59308;SDS011;48433;53.016;-2.260;2023-02-26T16:53:11;8.35;;;2.35;;
59308;SDS011;48433;53.016;-2.260;2023-02-26T16:55:51;8.43;;;2.00;;
59308;SDS011;48433;53.016;-2.260;2023-02-26T16:58:21;8.27;;;2.10;;
59308;SDS011;48433;53.016;-2.260;2023-02-26T17:00:51;8.82;;;2.20;;
59308;SDS011;48433;53.016;-2.260;2023-02-26T17:03:25;7.28;;;2.20;;
59308;SDS011;48433;53.016;-2.260;2023-02-26T17:06:02;13.52;;;2.35;;
59308;SDS011;48433;53.016;-2.260;2023-02-26T17:08:43;7.93;;;2.35;;
59308;SDS011;48433;53.016;-2.260;2023-02-26T17:11:24;8.13;;;2.42;;
59308;SDS011;48433;53.016;-2.260;2023-02-26T17:14:21;6.68;;;2.25;;
59308;SDS011;48433;53.016;-2.260;2023-02-26T17:16:51;9.25;;;2.00;;
59308;SDS011;48433;53.016;-2.260;2023-02-26T17:19:19;7.13;;;2.05;;
59308;SDS011;48433;53.016;-2.260;2023-02-26T17:21:49;10.48;;;2.90;;
59308;SDS011;48433;53.016;-2.260;2023-02-26T17:24:23;8.82;;;2.72;;
59308;SDS011;48433;53.016;-2.260;2023-02-26T17:26:56;11.95;;;2.42;;
59308;SDS011;48433;53.016;-2.260;2023-02-26T17:29:26;9.95;;;2.88;;
59308;SDS011;48433;53.016;-2.260;2023-02-26T17:32:03;14.45;;;3.38;;
59308;SDS011;48433;53.016;-2.260;2023-02-26T17:34:33;12.48;;;3.67;;
59308;SDS011;48433;53.016;-2.260;2023-02-26T17:37:00;10.68;;;3.40;;
59308;SDS011;48433;53.016;-2.260;2023-02-26T17:39:31;13.05;;;4.72;;
59308;SDS011;48433;53.016;-2.260;2023-02-26T17:41:59;14.60;;;4.90;;
59308;SDS011;48433;53.016;-2.260;2023-02-26T17:44:27;15.15;;;4.45;;
59308;SDS011;48433;53.016;-2.260;2023-02-26T17:46:55;13.70;;;4.72;;
59308;SDS011;48433;53.016;-2.260;2023-02-26T17:49:22;12.00;;;5.47;;
59308;SDS011;48433;53.016;-2.260;2023-02-26T17:51:50;12.48;;;4.50;;
59308;SDS011;48433;53.016;-2.260;2023-02-26T17:54:19;12.10;;;4.28;;
59308;SDS011;48433;53.016;-2.260;2023-02-26T17:56:47;16.55;;;7.00;;
59308;SDS011;48433;53.016;-2.260;2023-02-26T17:59:15;12.65;;;5.18;;
59308;SDS011;48433;53.016;-2.260;2023-02-26T18:01:43;13.48;;;4.72;;
59308;SDS011;48433;53.016;-2.260;2023-02-26T18:04:11;16.05;;;5.45;;
59308;SDS011;48433;53.016;-2.260;2023-02-26T18:06:39;13.27;;;4.75;;
59308;SDS011;48433;53.016;-2.260;2023-02-26T18:09:09;11.73;;;4.47;;
59308;SDS011;48433;53.016;-2.260;2023-02-26T18:11:38;17.83;;;5.28;;
59308;SDS011;48433;53.016;-2.260;2023-02-26T18:14:06;17.42;;;6.63;;
59308;SDS011;48433;53.016;-2.260;2023-02-26T18:16:36;20.15;;;7.18;;